sim
Sign-in with your pilot id or email,
or register
Callsign
Passwort

Schedule Details

Flight Number: EWG1983 (1)
Departure: Cologne Bonn Airport (EDDK) at 08:20
Arrival: Munich Airport (EDDM) at 09:25
Route: Eurowings Passenger Schedule. Enter filed route here before submitting Pirep.

Weather Information
Getting current METAR information for EDDK 271020Z 11007KT 050V160 9999 BKN018 12/09 Q1001 TEMPO SCT010
Getting current METAR information for EDDM 271020Z 22007KT 190V260 9999 FEW040 13/03 Q1006 NOSIG

Schedule Frequency

Route Map